• Join FlightAware (Why Join?)
  • Login
  • US Flag 
01:21PM EDT


 

Airport Tracker/Info


-or-


 

Live Flight TrackerFlight Track Log ✈ CHQ4377 ✈ 04-May-2013 ✈ KGRB - KORD

Flight Track Log - Related Links

Times and Time Zones

All times are in EDT time to prevent confusion due to time zone crossing. See the CHQ4377 flight status page for this flight to view local times or setup timezone preferences in your user account.

Time Position Orientation Groundspeed Altitude Reporting Facility
EDT Latitude Longitude Course Direction KTS MPH feet Rate Location/Type
03:46PM 44.2876 -88.1115 176° South  Level Estimated
03:47PM 44.2219 -88.1054 176° South  Level Estimated
03:48PM 44.1562 -88.0994 176° South  Level Estimated
03:49PM 44.0906 -88.0934 176° South  Level Estimated
03:50PM 44.0249 -88.0873 176° South  Level Estimated
03:51PM 43.9592 -88.0814 176° South  Level Estimated
03:52PM 43.8935 -88.0754 176° South  Level Estimated
03:53PM 43.8279 -88.0694 176° South  Level Estimated
03:54PM 43.7622 -88.0634 176° South  Level Estimated
03:55PM 43.6965 -88.0575 176° South  Level Estimated
03:56PM 43.6308 -88.0516 176° South  Level Estimated
03:57PM 43.5651 -88.0456 176° South  Level Estimated
03:58PM 43.4995 -88.0397 176° South  Level Estimated
03:59PM 43.4338 -88.0338 176° South  Level Estimated
04:00PM 43.3681 -88.0279 176° South  Level Estimated
04:01PM 43.3024 -88.0221 176° South  Level Estimated
04:02PM 43.2367 -88.0162 176° South  Level Estimated
04:03PM 43.1711 -88.0104 176° South  Level Estimated
04:04PM 43.1054 -88.0045 176° South  Level Estimated
04:05PM 43.0397 -87.9987 176° South  Level Estimated
04:06PM 42.9740 -87.9929 176° South  Level Estimated
04:07PM 42.9083 -87.9871 176° South  Level Estimated
04:08PM 42.8427 -87.9814 176° South  Level Estimated
04:09PM 42.7770 -87.9756 176° South  Level Estimated
04:10PM 42.7113 -87.9698 176° South  Level Estimated
04:11PM 42.6357 -87.9632 176° South  Level Estimated
04:12PM 42.5600 -87.9566 176° South  Level Estimated
04:13PM 42.4887 -87.9504 176° South  Level Estimated
04:14PM 42.4174 -87.9442 176° South  Level Estimated
04:15PM 42.3417 -87.9377 176° South  Level Estimated
04:16PM 42.2661 -87.9311 176° South  Level Estimated
04:17PM 42.1904 -87.9246 176° South  Level Estimated
04:18PM 42.1148 -87.9181 176° South  Level Estimated
04:19PM 42.0392 -87.9116 176° South  Level Estimated
04:20PM 41.9817 -87.9067 176° South  Level Estimated
04:21PM 41.9817 -87.9067 217° Southwest  Level Estimated
04:22PM 41.9817 -87.9067 217° Southwest  Level Estimated
04:23PM 41.9817 -87.9067 217° Southwest  Level Estimated